Hlavní strana
METAR-TAF:

METAR-TAF

Letiště :

Letiště Atény

Athény, Řecko

zeměpisná šířka: 37-56N, zeměpisná délka: 023-56E, výška: 94 m

Aktuální stav počasí

Zpráva byla vytvořena před 35 minutami, v 01:50 UTC
Severní vítr 15 kt
Teplota 12°C
Vlhkost vzduchu 50%
Tlak 1025 hPa
Viditelnost 10 km a více
Skoro jasno ve výšce 3000 ft

METAR: LGAV 220150Z 35015KT 9999 FEW030 12/02 Q1025 NOSIG

Čas: 04:25 (02:25 UTC)

Předpověď počasí

Zpráva byla vytvořena před 3 hodinami a 25 minutami, v 23:00 UTC
Předpověď platná od 22 v 00 UTC do 22 v 24 UTC
Severní vítr 22 kt s nárazy do 32 kt
Viditelnost 10 km a více
Skoro jasno ve výšce 3000 ft
Změna
od 22 v 16 UTC do 22 v 18 UTC
Severní vítr 22 kt

TAF: LGAV 212300Z 2200/2224 01022G32KT 9999 FEW030 BECMG 2216/2218 01022KT

Stav a předpovědi počasí z více než 4 000 letišť (zprávy METAR a TAF).

Červené a žluté tečky na mapě představují dostupné meteorologické stanice.

Když kurzor umístíte na tečku, zobrazí se název stanice.

Pak kliknutím zobrazíte stav a předpověď počasí.

Chcete-li změnit mapu, kliknutím na zelené tlačítko se znaménkem +mapu přiblížíte, kliknutím na zelené tlačítko se znaménkem – mapu oddálíte a kliknutím na zelené šipky přejdete na sousední mapy.


METAR-TAF: